Time;durP1;ratioP1;P1;durP2;ratioP2;P2;SDS_P1;SDS_P2;PMS_P1;PMS_P2;Temp;Humidity;BMP_temperature;BMP_pressure;BME280_temperature;BME280_humidity;BME280_pressure;Samples;Min_cycle;Max_cycle;Signal;HPM_P1;HPM_P2
2020/12/26 00:04:14;;;;;;;18.98;8.45;;;;;;;1.14;86.30;99154.37;4488268;78;21163;-87
2020/12/26 00:10:16;;;;;;;16.97;7.03;;;;;;;1.14;86.41;99161.11;4485970;78;21140;-87
2020/12/26 00:16:18;;;;;;;14.50;7.55;;;;;;;1.09;86.24;99160.69;4381827;80;21164;-87
2020/12/26 00:22:23;;;;;;;19.12;8.38;;;;;;;1.11;86.57;99175.20;4345802;80;21166;-87
2020/12/26 00:28:24;;;;;;;16.85;8.20;;;;;;;1.07;86.18;99174.22;4349270;80;21193;-87
2020/12/26 00:34:26;;;;;;;15.72;7.92;;;;;;;1.04;86.25;99176.98;4358533;80;21193;-87
2020/12/26 00:40:28;;;;;;;20.10;8.80;;;;;;;1.05;86.57;99187.23;4390906;80;21610;-88
2020/12/26 00:46:29;;;;;;;18.98;8.80;;;;;;;0.94;86.54;99169.14;4347002;80;21517;-88
2020/12/26 00:52:32;;;;;;;15.78;8.45;;;;;;;0.97;86.71;99184.70;4344704;80;21579;-87
2020/12/26 00:58:34;;;;;;;21.27;9.60;;;;;;;0.97;86.71;99184.70;4392750;79;21183;-87
2020/12/26 01:04:36;;;;;;;20.62;10.20;;;;;;;0.85;86.73;99167.48;4388005;79;21153;-87
2020/12/26 01:10:37;;;;;;;20.37;10.25;;;;;;;0.91;86.94;99204.80;4389606;79;21627;-87
2020/12/26 01:16:52;;;;;;;21.73;11.33;;;;;;;0.91;86.94;99204.80;4392479;79;21187;-87
2020/12/26 01:22:53;;;;;;;22.35;12.37;;;;;;;0.91;86.96;99205.38;4347004;80;21379;-87
2020/12/26 01:28:54;;;;;;;24.87;11.73;;;;;;;0.86;86.84;99212.22;4352354;80;21363;-87
2020/12/26 01:34:58;;;;;;;25.80;12.78;;;;;;;0.84;86.95;99200.41;4350722;80;21348;-87
2020/12/26 01:41:00;;;;;;;21.60;10.53;;;;;;;0.80;87.38;99201.33;4345958;80;21212;-87
2020/12/26 01:47:01;;;;;;;22.35;11.63;;;;;;;0.69;87.24;99174.38;4348739;80;21606;-87
2020/12/26 01:53:03;;;;;;;21.15;10.98;;;;;;;0.69;87.24;99174.38;4348395;80;21162;-88
2020/12/26 01:59:04;;;;;;;21.10;10.63;;;;;;;0.77;87.41;99191.13;4345827;80;21645;-88
2020/12/26 02:05:06;;;;;;;21.12;11.03;;;;;;;0.74;87.41;99195.24;4348402;80;21736;-88
2020/12/26 02:11:08;;;;;;;25.00;13.13;;;;;;;0.71;87.93;99183.73;4348600;80;21185;-88
2020/12/26 02:17:09;;;;;;;27.10;13.43;;;;;;;0.73;87.77;99187.47;4348027;80;21192;-88
2020/12/26 02:23:11;;;;;;;29.30;15.15;;;;;;;0.70;87.70;99189.42;4347744;80;21192;-86
2020/12/26 02:29:12;;;;;;;25.48;14.10;;;;;;;0.70;87.70;99189.42;4348696;80;21142;-87
2020/12/26 02:35:13;;;;;;;31.42;15.53;;;;;;;0.71;87.90;99189.66;4339904;80;21173;-87
2020/12/26 02:41:15;;;;;;;30.88;15.15;;;;;;;0.69;87.78;99185.16;4310783;81;21161;-87
2020/12/26 02:47:17;;;;;;;30.02;15.43;;;;;;;0.67;87.93;99195.42;4311930;81;21336;-87
2020/12/26 02:53:19;;;;;;;28.47;15.13;;;;;;;0.68;88.02;99192.97;4312696;81;21167;-87
2020/12/26 02:59:21;;;;;;;26.57;13.95;;;;;;;0.69;87.77;99202.66;4311170;81;21598;-86
2020/12/26 03:05:22;;;;;;;27.62;12.65;;;;;;;0.69;87.77;99202.66;4309993;81;21794;-87
2020/12/26 03:11:24;;;;;;;22.70;12.55;;;;;;;0.57;87.71;99184.87;4310842;81;21158;-87
2020/12/26 03:17:25;;;;;;;25.30;12.85;;;;;;;0.64;87.57;99213.02;4313069;81;21170;-86
2020/12/26 03:23:28;;;;;;;20.80;11.75;;;;;;;0.61;87.87;99234.37;4312714;81;21329;-87
2020/12/26 03:29:37;;;;;;;26.33;13.85;;;;;;;0.61;87.87;99234.37;4311326;81;21163;-87
2020/12/26 03:35:38;;;;;;;26.87;13.28;;;;;;;0.57;87.76;99238.75;4323143;80;22396;-87
2020/12/26 03:41:39;;;;;;;25.65;13.85;;;;;;;0.54;87.85;99245.55;4354319;80;21174;-87
2020/12/26 03:47:41;;;;;;;24.35;13.05;;;;;;;0.53;87.84;99249.91;4353768;80;21157;-87
2020/12/26 03:53:42;;;;;;;26.73;11.93;;;;;;;0.55;87.79;99263.88;4350486;80;21186;-87
2020/12/26 03:59:44;;;;;;;19.57;10.60;;;;;;;0.50;88.02;99268.02;4345226;80;21645;-87
2020/12/26 04:05:45;;;;;;;20.52;11.93;;;;;;;0.47;87.44;99264.02;4345143;80;21202;-87
2020/12/26 04:11:48;;;;;;;22.90;11.75;;;;;;;0.47;87.44;99264.02;4353234;80;21149;-87
2020/12/26 04:17:49;;;;;;;18.35;9.90;;;;;;;0.42;87.73;99278.95;4348966;80;21617;-88
2020/12/26 04:23:51;;;;;;;17.35;10.30;;;;;;;0.43;87.96;99271.66;4353004;80;21171;-87
2020/12/26 04:29:53;;;;;;;19.87;10.70;;;;;;;0.42;87.77;99253.91;4343152;80;21165;-86
2020/12/26 04:35:54;;;;;;;23.00;10.72;;;;;;;0.47;87.66;99280.17;4387741;80;21291;-86
2020/12/26 04:41:56;;;;;;;22.60;10.30;;;;;;;0.45;87.87;99270.81;4337287;80;21193;-87
2020/12/26 04:48:05;;;;;;;22.50;10.10;;;;;;;0.53;87.84;99276.84;4318421;81;21314;-87
2020/12/26 04:54:26;;;;;;;19.70;10.10;;;;;;;0.51;87.50;99285.77;4444236;79;23398;-87
2020/12/26 05:00:33;;;;;;;24.52;11.73;;;;;;;0.39;87.62;99293.56;4375332;80;21127;-87
2020/12/26 05:06:41;;;;;;;18.07;10.60;;;;;;;0.33;87.41;99308.23;4382505;80;22274;-86
2020/12/26 05:12:43;;;;;;;20.23;10.82;;;;;;;0.34;87.63;99301.20;4380435;80;21617;-87
2020/12/26 05:18:48;;;;;;;20.23;10.20;;;;;;;0.32;87.34;99298.01;4384869;79;21188;-85
2020/12/26 05:24:53;;;;;;;21.13;9.77;;;;;;;0.33;87.60;99301.51;4388399;79;21153;-88
2020/12/26 05:30:55;;;;;;;22.57;10.53;;;;;;;0.30;87.58;99308.27;4377064;80;21594;-87
2020/12/26 05:36:59;;;;;;;17.67;10.10;;;;;;;0.21;87.31;99312.77;4379241;80;21162;-87
2020/12/26 05:43:04;;;;;;;20.20;10.77;;;;;;;0.14;87.57;99316.97;4388702;80;21177;-86
2020/12/26 05:49:30;;;;;;;21.07;10.50;;;;;;;0.14;87.85;99320.47;4382837;80;21216;-86
2020/12/26 05:55:46;;;;;;;17.60;10.43;;;;;;;0.18;87.86;99317.41;4399828;80;21130;-86
2020/12/26 06:01:48;;;;;;;22.17;11.37;;;;;;;0.27;87.98;99329.64;4390265;80;21738;-86
2020/12/26 06:07:50;;;;;;;19.20;10.80;;;;;;;0.25;87.76;99335.86;4386953;80;21781;-86
2020/12/26 06:13:52;;;;;;;24.05;11.80;;;;;;;0.26;87.88;99340.95;4399016;80;21121;-86
2020/12/26 06:20:03;;;;;;;19.60;11.00;;;;;;;0.26;88.16;99342.84;4400792;80;21159;-87
2020/12/26 06:26:06;;;;;;;19.87;11.00;;;;;;;0.30;88.08;99353.27;4405112;80;21571;-86
2020/12/26 06:32:08;;;;;;;24.35;12.55;;;;;;;0.24;88.10;99380.83;4392705;80;21171;-86
2020/12/26 06:38:14;;;;;;;23.95;12.23;;;;;;;0.24;88.10;99380.83;4406076;80;21158;-87
2020/12/26 06:44:15;;;;;;;24.02;13.30;;;;;;;0.24;88.40;99389.44;4405033;79;21148;-86
2020/12/26 06:50:24;;;;;;;21.65;12.93;;;;;;;0.29;88.57;99414.94;4397999;80;21133;-86
2020/12/26 06:56:43;;;;;;;25.90;13.65;;;;;;;0.29;88.57;99414.94;4405899;80;21170;-86
2020/12/26 07:02:45;;;;;;;27.10;15.23;;;;;;;0.29;88.57;99417.09;4398177;80;21174;-86
2020/12/26 07:08:52;;;;;;;28.77;16.75;;;;;;;0.25;88.68;99393.75;4408552;79;21647;-86
2020/12/26 07:14:54;;;;;;;28.45;15.68;;;;;;;0.25;88.68;99393.75;4398887;80;21115;-88
2020/12/26 07:20:55;;;;;;;33.88;15.40;;;;;;;0.34;88.53;99426.97;4403141;80;21606;-88
2020/12/26 07:27:32;;;;;;;25.40;14.95;;;;;;;0.38;88.61;99426.07;4407963;80;21726;-87
2020/12/26 07:33:38;;;;;;;27.05;14.58;;;;;;;0.38;88.71;99439.53;4401573;80;21287;-87
2020/12/26 07:39:46;;;;;;;27.70;14.78;;;;;;;0.39;88.55;99443.04;4407119;80;21198;-87
2020/12/26 07:45:48;;;;;;;30.53;16.47;;;;;;;0.41;88.55;99438.16;4403500;80;22171;-87
2020/12/26 07:52:07;;;;;;;29.52;16.65;;;;;;;0.42;88.50;99440.55;4392791;80;21301;-87
2020/12/26 07:58:16;;;;;;;29.55;15.48;;;;;;;0.52;88.47;99452.47;4376499;80;21192;-87
2020/12/26 08:04:18;;;;;;;28.12;14.60;;;;;;;0.52;88.47;99452.47;4377270;80;21356;-87
2020/12/26 08:10:21;;;;;;;27.45;13.28;;;;;;;0.55;88.66;99451.87;4388347;80;21169;-87
2020/12/26 08:16:23;;;;;;;23.75;13.88;;;;;;;0.56;88.52;99464.27;4376505;80;21162;-87
2020/12/26 08:22:25;;;;;;;25.57;13.22;;;;;;;0.58;88.34;99463.39;4379714;80;21157;-87
2020/12/26 08:28:27;;;;;;;25.48;12.82;;;;;;;0.62;88.22;99477.08;4376599;80;21141;-87
2020/12/26 08:34:54;;;;;;;22.15;11.38;;;;;;;0.62;88.30;99473.84;4375688;80;21595;-88
2020/12/26 08:40:59;;;;;;;23.18;12.68;;;;;;;0.66;88.42;99478.09;4374741;80;21149;-86
2020/12/26 08:47:00;;;;;;;21.62;10.70;;;;;;;0.67;88.04;99493.16;4380802;80;21197;-87
2020/12/26 08:53:05;;;;;;;23.90;13.13;;;;;;;0.65;88.10;99492.11;4379302;80;21202;-87
2020/12/26 08:59:07;;;;;;;27.17;12.93;;;;;;;0.68;88.24;99500.13;4381744;80;21167;-87
2020/12/26 09:05:27;;;;;;;22.42;11.12;;;;;;;0.63;88.19;99508.30;4384541;79;21141;-87
2020/12/26 09:11:30;;;;;;;34.20;12.88;;;;;;;0.55;88.05;99509.02;4377292;80;21147;-87
2020/12/26 09:17:31;;;;;;;24.02;11.57;;;;;;;0.50;88.41;99512.56;4381048;80;21162;-86
2020/12/26 09:23:36;;;;;;;27.42;13.08;;;;;;;0.53;88.35;99513.89;4383163;80;21450;-87
2020/12/26 09:29:38;;;;;;;31.55;13.78;;;;;;;0.55;88.49;99515.75;4374207;80;21523;-88
2020/12/26 09:35:39;;;;;;;32.15;13.85;;;;;;;0.52;88.78;99523.08;4377537;80;21384;-88
2020/12/26 09:41:49;;;;;;;28.40;14.93;;;;;;;0.49;88.77;99523.64;4376653;80;21137;-88
2020/12/26 09:47:50;;;;;;;26.42;13.32;;;;;;;0.49;89.14;99533.88;4379101;80;21181;-88
2020/12/26 09:53:52;;;;;;;29.07;14.65;;;;;;;0.54;88.95;99517.63;4379901;80;21144;-87
2020/12/26 09:59:53;;;;;;;26.33;13.53;;;;;;;0.90;89.18;99511.84;4382805;79;21213;-87
2020/12/26 10:05:55;;;;;;;22.80;13.28;;;;;;;0.90;89.18;99511.84;4395459;79;21188;-88
2020/12/26 10:11:56;;;;;;;24.98;12.78;;;;;;;1.11;89.10;99514.94;4381589;80;21222;-87
2020/12/26 10:17:58;;;;;;;32.17;14.30;;;;;;;1.20;88.70;99505.84;4382562;80;21185;-88
2020/12/26 10:23:59;;;;;;;25.97;14.93;;;;;;;1.42;88.34;99517.25;4377749;80;21537;-87
2020/12/26 10:30:01;;;;;;;34.45;16.40;;;;;;;1.39;88.00;99522.68;4376967;80;21110;-88
2020/12/26 10:36:02;;;;;;;25.80;12.90;;;;;;;1.35;87.75;99520.34;4377279;80;21165;-89
2020/12/26 10:42:04;;;;;;;32.30;16.55;;;;;;;1.45;88.20;99515.30;4384973;80;21694;-88
2020/12/26 10:48:05;;;;;;;24.75;13.98;;;;;;;1.42;87.88;99511.31;4384543;80;21196;-88
2020/12/26 10:54:07;;;;;;;25.55;13.68;;;;;;;1.50;87.51;99512.49;4380848;80;21967;-87
2020/12/26 11:00:10;;;;;;;20.68;9.88;;;;;;;1.69;87.36;99513.16;4379363;80;21205;-87
2020/12/26 11:06:11;;;;;;;24.12;9.93;;;;;;;1.67;86.30;99511.30;4379521;80;21470;-88
2020/12/26 11:12:13;;;;;;;17.27;7.70;;;;;;;1.59;86.65;99518.22;4377025;80;21155;-86
2020/12/26 11:18:15;;;;;;;18.82;8.80;;;;;;;1.59;85.60;99522.81;4380002;80;21188;-87
2020/12/26 11:24:16;;;;;;;20.02;8.60;;;;;;;1.55;85.60;99526.66;4384037;80;21177;-87
2020/12/26 11:30:18;;;;;;;20.88;8.58;;;;;;;1.56;85.14;99523.42;4384238;80;21188;-88
2020/12/26 11:36:27;;;;;;;21.02;9.13;;;;;;;1.58;85.73;99522.00;4373649;80;21403;-88
2020/12/26 11:42:29;;;;;;;18.48;8.28;;;;;;;1.57;84.43;99519.06;4383953;80;21207;-88
2020/12/26 11:48:30;;;;;;;23.10;8.48;;;;;;;1.57;83.59;99517.72;4382409;79;21436;-87
2020/12/26 11:54:32;;;;;;;29.92;10.88;;;;;;;1.61;82.65;99520.05;4385502;80;21131;-86
2020/12/26 12:00:33;;;;;;;25.23;11.05;;;;;;;1.52;83.83;99524.56;4387742;80;21143;-86
2020/12/26 12:06:34;;;;;;;20.52;8.75;;;;;;;1.57;83.92;99532.55;4380603;80;21271;-87
2020/12/26 12:12:36;;;;;;;25.32;8.65;;;;;;;1.57;83.02;99526.35;4376997;80;21185;-88
2020/12/26 12:18:38;;;;;;;26.68;10.00;;;;;;;1.54;83.31;99523.72;4379852;80;21173;-89
2020/12/26 12:24:39;;;;;;;25.37;10.00;;;;;;;1.55;83.17;99531.27;4376454;80;21174;-87
2020/12/26 12:30:40;;;;;;;24.57;10.20;;;;;;;1.58;83.26;99536.06;4380398;80;21471;-87
2020/12/26 12:44:11;;;;;;;24.52;10.30;;;;;;;1.67;82.92;99522.63;4379682;80;21182;-87
2020/12/26 12:50:12;;;;;;;21.52;9.08;;;;;;;1.58;81.55;99517.95;4378361;80;21167;-87
2020/12/26 12:56:14;;;;;;;19.87;8.93;;;;;;;1.56;81.99;99538.26;4376519;80;21159;-87
2020/12/26 13:02:15;;;;;;;28.98;10.63;;;;;;;1.51;81.53;99549.16;4382247;80;21127;-87
2020/12/26 13:08:20;;;;;;;25.72;10.63;;;;;;;1.35;81.89;99564.86;4387117;80;21171;-87
2020/12/26 13:14:21;;;;;;;29.05;11.50;;;;;;;1.19;81.78;99560.86;4373768;80;21159;-86
2020/12/26 13:20:23;;;;;;;32.05;12.70;;;;;;;1.17;82.55;99557.69;4380771;80;21169;-87
2020/12/26 13:26:28;;;;;;;27.85;12.00;;;;;;;1.27;82.17;99560.70;4385911;80;21161;-85
2020/12/26 13:32:30;;;;;;;33.05;13.20;;;;;;;1.24;82.08;99566.70;4379686;80;21157;-86
2020/12/26 13:38:33;;;;;;;31.15;12.58;;;;;;;1.24;82.26;99575.59;4374642;80;21177;-86
2020/12/26 13:44:34;;;;;;;31.40;12.78;;;;;;;1.25;81.66;99574.48;4381171;80;21227;-86
2020/12/26 13:50:36;;;;;;;33.38;12.15;;;;;;;1.25;81.66;99574.48;4380256;80;21876;-88
2020/12/26 13:56:46;;;;;;;30.20;12.30;;;;;;;1.24;81.31;99577.48;4391438;80;21157;-87
2020/12/26 14:02:58;;;;;;;35.92;14.50;;;;;;;1.20;81.26;99586.75;4390187;80;21283;-88
2020/12/26 14:09:03;;;;;;;36.40;13.03;;;;;;;1.13;81.24;99584.17;4397116;80;21407;-87
2020/12/26 14:15:05;;;;;;;39.38;16.80;;;;;;;1.08;81.31;99589.69;4397289;80;21195;-88
2020/12/26 14:21:06;;;;;;;41.37;15.88;;;;;;;0.90;81.19;99571.67;4403969;80;21177;-87
2020/12/26 14:27:08;;;;;;;44.48;17.67;;;;;;;0.99;80.47;99594.14;4400517;80;21610;-88
2020/12/26 14:33:09;;;;;;;45.63;18.62;;;;;;;0.92;81.40;99599.14;4399833;80;21158;-86
2020/12/26 14:39:13;;;;;;;42.95;16.62;;;;;;;0.91;80.89;99597.55;4405657;80;21283;-85
2020/12/26 14:45:14;;;;;;;40.48;16.57;;;;;;;0.91;80.89;99598.91;4392978;80;21181;-86
2020/12/26 14:51:16;;;;;;;41.58;15.93;;;;;;;0.79;81.17;99580.50;4400287;80;21202;-86
2020/12/26 14:57:17;;;;;;;40.73;15.30;;;;;;;0.84;81.00;99599.28;4393870;79;21398;-86
2020/12/26 15:03:19;;;;;;;44.03;15.55;;;;;;;0.83;81.21;99602.28;4385219;80;21206;-87
2020/12/26 15:09:20;;;;;;;41.95;16.40;;;;;;;0.81;81.13;99605.27;4384586;80;21211;-87
2020/12/26 15:15:22;;;;;;;34.65;14.35;;;;;;;0.77;81.25;99605.59;4383093;79;21161;-87
2020/12/26 15:21:23;;;;;;;46.42;16.02;;;;;;;0.79;81.47;99616.88;4395197;79;21226;-85
2020/12/26 15:27:25;;;;;;;40.30;15.68;;;;;;;0.76;81.24;99619.36;4392717;79;21162;-86
2020/12/26 15:33:27;;;;;;;52.13;18.02;;;;;;;0.76;81.24;99619.36;4390408;79;21179;-86
2020/12/26 15:39:29;;;;;;;43.68;18.35;;;;;;;0.71;80.88;99620.25;4389727;79;21152;-87
2020/12/26 15:45:30;;;;;;;46.30;17.73;;;;;;;0.69;81.11;99614.35;4383592;79;21177;-86
2020/12/26 15:51:31;;;;;;;56.05;20.08;;;;;;;0.70;81.26;99614.63;4388365;79;21191;-86
2020/12/26 15:57:33;;;;;;;52.95;19.57;;;;;;;0.62;80.89;99611.25;4296638;81;21175;-87
2020/12/26 16:03:34;;;;;;;51.20;20.32;;;;;;;0.53;80.89;99604.95;4263535;82;21197;-87
2020/12/26 16:09:42;;;;;;;49.05;19.05;;;;;;;0.59;81.16;99623.97;4248013;82;21209;-88
2020/12/26 16:15:39;;;;;;;56.90;22.62;;;;;;;0.48;81.47;99619.84;4254972;82;21173;-87
2020/12/26 16:21:41;;;;;;;56.95;23.80;;;;;;;0.42;81.29;99617.52;4247883;82;21182;-87
2020/12/26 16:27:42;;;;;;;60.90;22.50;;;;;;;0.32;81.35;99617.12;4247273;82;21191;-87
2020/12/26 16:33:44;;;;;;;63.07;25.13;;;;;;;0.24;81.23;99619.66;4247026;82;21195;-87
2020/12/26 16:39:49;;;;;;;61.50;24.85;;;;;;;0.02;81.76;99614.09;4254323;82;21214;-86
2020/12/26 16:45:50;;;;;;;63.87;26.27;;;;;;;-0.05;81.50;99629.25;4261932;82;21236;-87
2020/12/26 16:51:52;;;;;;;70.53;27.73;;;;;;;-0.21;81.37;99625.16;4258683;82;21421;-86
2020/12/26 16:57:53;;;;;;;68.33;27.23;;;;;;;-0.32;81.41;99635.26;4183447;83;21174;-87
2020/12/26 17:03:55;;;;;;;66.47;26.90;;;;;;;-0.30;81.58;99629.02;4233648;83;21200;-87
2020/12/26 17:09:56;;;;;;;68.33;26.90;;;;;;;-0.40;81.56;99636.42;4232103;83;21184;-86
2020/12/26 17:15:58;;;;;;;74.23;30.20;;;;;;;-0.54;81.69;99643.59;4218698;83;21177;-86
2020/12/26 17:21:59;;;;;;;76.37;30.40;;;;;;;-0.67;81.91;99626.25;4222191;83;21630;-86
2020/12/26 17:28:00;;;;;;;84.20;30.10;;;;;;;-0.84;81.55;99623.75;4226015;83;21253;-86
2020/12/26 17:34:03;;;;;;;82.43;30.63;;;;;;;-1.01;82.35;99623.40;4222786;83;21204;-86
2020/12/26 17:40:22;;;;;;;83.97;32.60;;;;;;;-1.06;82.49;99626.94;4197436;83;21454;-86
2020/12/26 17:52:45;;;;;;;74.30;34.33;;;;;;;-1.06;82.75;99614.04;4427610;77;28025;-85
2020/12/26 17:58:48;;;;;;;73.77;31.60;;;;;;;-1.03;82.11;99622.34;4412360;79;22068;-85
2020/12/26 18:04:51;;;;;;;76.70;29.40;;;;;;;-1.10;82.49;99625.11;4243698;82;21201;-85
2020/12/26 18:10:52;;;;;;;77.77;29.40;;;;;;;-1.13;82.63;99629.17;4243709;82;21219;-85
2020/12/26 18:16:54;;;;;;;76.23;29.90;;;;;;;-1.25;82.89;99627.95;4317230;80;21190;-86
2020/12/26 18:22:55;;;;;;;78.10;30.20;;;;;;;-1.36;82.92;99625.09;4274883;81;21169;-87
2020/12/26 18:28:57;;;;;;;86.90;34.13;;;;;;;-1.47;82.75;99614.95;4277316;81;21181;-87
2020/12/26 18:34:59;;;;;;;74.47;32.27;;;;;;;-1.62;82.64;99622.61;4262178;81;21674;-86
2020/12/26 18:41:01;;;;;;;83.60;34.30;;;;;;;-1.68;82.92;99628.30;4268627;81;21177;-86
2020/12/26 18:47:02;;;;;;;92.77;38.07;;;;;;;-1.75;82.79;99628.61;4275386;81;21381;-87
2020/12/26 18:53:04;;;;;;;97.93;37.13;;;;;;;-1.84;82.82;99628.13;4252482;83;21175;-87
2020/12/26 18:59:05;;;;;;;83.40;35.53;;;;;;;-2.01;82.52;99635.75;4246801;82;21537;-86
2020/12/26 19:05:07;;;;;;;100.50;38.90;;;;;;;-2.13;82.75;99642.78;4251882;82;21193;-87
2020/12/26 19:11:21;;;;;;;86.80;34.23;;;;;;;-2.22;82.74;99643.63;4244459;82;21178;-86
2020/12/26 19:17:24;;;;;;;70.63;28.43;;;;;;;-2.23;83.05;99652.77;4260081;82;21712;-85
2020/12/26 19:23:27;;;;;;;67.03;28.43;;;;;;;-2.18;82.92;99659.45;4244586;82;21176;-86
2020/12/26 19:29:29;;;;;;;61.77;25.23;;;;;;;-2.21;82.89;99654.09;4130994;82;9999823;-86
2020/12/26 19:35:30;;;;;;;60.77;24.97;;;;;;;-2.22;82.90;99657.86;4249233;82;21233;-86
2020/12/26 19:41:32;;;;;;;59.13;23.30;;;;;;;-2.19;82.99;99652.47;4246016;82;21604;-86
2020/12/26 19:47:33;;;;;;;50.27;21.67;;;;;;;-2.21;82.89;99655.42;4249339;82;21187;-87
2020/12/26 19:53:35;;;;;;;58.80;22.37;;;;;;;-2.24;82.97;99649.28;4263546;81;22548;-87
2020/12/26 19:59:37;;;;;;;49.70;22.13;;;;;;;-2.24;83.04;99655.20;4270855;81;21212;-87
2020/12/26 20:05:39;;;;;;;53.47;21.83;;;;;;;-2.20;83.18;99656.23;4265979;81;21185;-87
2020/12/26 20:11:40;;;;;;;45.97;19.10;;;;;;;-2.16;83.26;99651.39;4263763;81;21834;-87
2020/12/26 20:17:42;;;;;;;55.87;22.17;;;;;;;-2.12;83.20;99654.33;4266219;81;21193;-86
2020/12/26 20:23:44;;;;;;;48.07;21.17;;;;;;;-2.10;83.66;99658.33;4260828;81;21214;-86
2020/12/26 20:29:46;;;;;;;54.10;22.37;;;;;;;-2.15;83.27;99654.88;4263695;81;21195;-85
2020/12/26 20:35:48;;;;;;;48.87;20.33;;;;;;;-2.20;83.73;99650.87;4284914;81;21351;-86
2020/12/26 20:41:49;;;;;;;54.73;21.90;;;;;;;-2.18;83.46;99640.16;4258716;81;21347;-86
2020/12/26 20:47:51;;;;;;;65.83;24.40;;;;;;;-2.27;83.23;99635.64;4270778;81;21183;-85
2020/12/26 20:53:52;;;;;;;89.10;31.43;;;;;;;-2.33;83.40;99643.42;4244476;81;21416;-85
2020/12/26 20:59:54;;;;;;;79.77;29.80;;;;;;;-2.34;83.51;99640.48;4241924;82;21205;-85
2020/12/26 21:05:55;;;;;;;104.63;35.00;;;;;;;-2.34;83.45;99637.28;4251055;82;21174;-85
2020/12/26 21:11:57;;;;;;;87.67;30.73;;;;;;;-2.48;83.20;99636.27;4246459;82;21658;-85
2020/12/26 21:17:58;;;;;;;72.43;27.30;;;;;;;-2.55;83.56;99635.74;4251054;82;21188;-85
2020/12/26 21:24:00;;;;;;;65.63;27.27;;;;;;;-2.66;84.14;99637.41;4250646;82;21194;-86
2020/12/26 21:30:03;;;;;;;62.87;27.33;;;;;;;-2.60;84.50;99637.09;4242995;82;21205;-86
2020/12/26 21:36:04;;;;;;;76.37;29.63;;;;;;;-2.67;84.18;99639.28;4264168;82;21643;-85
2020/12/26 21:42:06;;;;;;;91.53;33.83;;;;;;;-2.72;84.10;99627.23;4245210;82;21197;-86
2020/12/26 21:48:07;;;;;;;75.33;31.13;;;;;;;-2.88;83.94;99627.56;4259756;82;21655;-85
2020/12/26 21:54:09;;;;;;;81.47;32.30;;;;;;;-2.99;84.09;99628.66;4260285;81;21201;-86
2020/12/26 22:00:10;;;;;;;91.10;34.30;;;;;;;-3.02;84.27;99622.51;4275886;82;21173;-85
2020/12/26 22:06:16;;;;;;;100.40;38.10;;;;;;;-3.05;84.07;99621.71;4268880;81;21179;-85
2020/12/26 22:12:17;;;;;;;103.40;36.17;;;;;;;-3.17;84.20;99623.33;4268845;83;21282;-86
2020/12/26 22:18:19;;;;;;;69.90;24.20;;;;;;;-3.19;84.30;99614.75;4272791;81;21715;-85
2020/12/26 22:24:20;;;;;;;70.90;26.43;;;;;;;-3.17;84.19;99606.45;4280089;81;21180;-86
2020/12/26 22:30:22;;;;;;;68.50;26.53;;;;;;;-3.12;84.12;99605.11;4280213;81;22627;-85
2020/12/26 22:36:24;;;;;;;79.63;28.33;;;;;;;-3.17;84.15;99606.45;4272780;81;21288;-85
2020/12/26 22:42:26;;;;;;;109.50;34.43;;;;;;;-3.19;83.85;99595.23;4259851;81;21323;-86
2020/12/26 22:48:28;;;;;;;87.80;31.87;;;;;;;-3.15;84.41;99582.89;4267219;81;21135;-85
2020/12/26 22:54:29;;;;;;;69.27;25.03;;;;;;;-3.21;83.88;99578.09;4281709;82;21184;-85
2020/12/26 23:00:37;;;;;;;69.10;25.33;;;;;;;-3.28;84.12;99569.00;4275464;81;21593;-86
2020/12/26 23:06:38;;;;;;;64.13;25.57;;;;;;;-3.38;84.11;99554.81;4280160;82;21202;-85
2020/12/26 23:12:40;;;;;;;57.27;23.20;;;;;;;-3.49;83.95;99546.00;4276415;81;21662;-85
2020/12/26 23:18:42;;;;;;;57.23;23.47;;;;;;;-3.54;84.35;99551.36;4274554;82;21166;-85
2020/12/26 23:24:43;;;;;;;60.63;22.57;;;;;;;-3.57;84.55;99538.52;4270525;81;21332;-85
2020/12/26 23:30:47;;;;;;;54.70;21.60;;;;;;;-3.60;84.48;99532.38;4272675;83;21207;-86
2020/12/26 23:36:49;;;;;;;41.90;16.90;;;;;;;-3.65;84.51;99529.70;4277982;83;21182;-86
2020/12/26 23:42:50;;;;;;;40.90;17.50;;;;;;;-3.65;84.74;99519.55;4278552;81;21630;-86
2020/12/26 23:48:52;;;;;;;45.07;19.50;;;;;;;-3.61;84.81;99512.05;4273139;83;21318;-86
2020/12/26 23:54:53;;;;;;;48.70;19.87;;;;;;;-3.71;84.65;99512.05;4292793;82;21186;-85
